Time;durP1;ratioP1;P1;durP2;ratioP2;P2;SDS_P1;SDS_P2;PMS_P1;PMS_P2;Temp;Humidity;BMP_temperature;BMP_pressure;BME280_temperature;BME280_humidity;BME280_pressure;Samples;Min_cycle;Max_cycle;Signal;HPM_P1;HPM_P2
2023/06/25 00:01:06;;;;;;;11.30;8.80;;;;;;;16.12;79.72;101573.91;5003902;28;20204;-71
2023/06/25 00:03:33;;;;;;;10.60;9.00;;;;;;;16.08;79.54;101567.69;4993229;28;20610;-72
2023/06/25 00:05:59;;;;;;;13.30;8.90;;;;;;;16.05;79.35;101558.50;4993508;28;20242;-72
2023/06/25 00:08:25;;;;;;;13.33;9.57;;;;;;;16.03;79.48;101565.25;4993034;28;20225;-71
2023/06/25 00:10:52;;;;;;;10.37;8.83;;;;;;;16.01;79.89;101564.84;5009815;28;20223;-72
2023/06/25 00:13:18;;;;;;;12.77;8.93;;;;;;;15.99;79.51;101569.75;5005936;28;20251;-71
2023/06/25 00:15:46;;;;;;;11.60;9.07;;;;;;;15.97;79.61;101579.94;5011717;28;20215;-72
2023/06/25 00:18:12;;;;;;;11.20;8.87;;;;;;;15.95;79.68;101564.31;5006024;28;20224;-71
2023/06/25 00:20:39;;;;;;;11.07;8.47;;;;;;;15.92;80.29;101567.63;4994050;28;20282;-71
2023/06/25 00:23:05;;;;;;;10.73;8.90;;;;;;;15.91;79.84;101565.31;5005907;28;20679;-71
2023/06/25 00:25:32;;;;;;;10.57;8.37;;;;;;;15.89;79.72;101573.63;4993520;28;20206;-71
2023/06/25 00:27:59;;;;;;;10.17;8.43;;;;;;;15.86;79.83;101570.88;4992859;28;20245;-71
2023/06/25 00:30:26;;;;;;;10.07;8.93;;;;;;;15.84;80.13;101565.09;4991163;28;20209;-71
2023/06/25 00:32:55;;;;;;;11.83;9.40;;;;;;;15.81;79.69;101565.78;5010774;28;20220;-71
2023/06/25 00:35:24;;;;;;;10.97;8.97;;;;;;;15.80;80.35;101573.00;5012388;28;20192;-71
2023/06/25 00:37:56;;;;;;;11.00;8.90;;;;;;;15.77;80.57;101571.00;4998662;28;20260;-72
2023/06/25 00:40:23;;;;;;;10.00;8.43;;;;;;;15.76;80.16;101574.00;4990770;28;20576;-71
2023/06/25 00:42:58;;;;;;;11.27;9.00;;;;;;;15.75;80.34;101567.91;4991112;28;20190;-71
2023/06/25 00:45:26;;;;;;;11.60;9.20;;;;;;;15.74;80.45;101566.31;4992596;28;20201;-71
2023/06/25 00:47:53;;;;;;;10.37;8.60;;;;;;;15.71;80.01;101553.69;4984431;28;20246;-71
2023/06/25 00:50:21;;;;;;;11.47;9.50;;;;;;;15.72;80.66;101565.91;4989718;28;20209;-71
2023/06/25 00:52:48;;;;;;;11.57;8.03;;;;;;;15.71;80.97;101561.69;4981844;28;20683;-71
2023/06/25 00:55:15;;;;;;;12.70;9.33;;;;;;;15.69;81.05;101565.81;4993801;28;20198;-71
2023/06/25 00:57:42;;;;;;;10.20;8.50;;;;;;;15.66;80.56;101559.25;4999438;28;20282;-71
2023/06/25 01:00:14;;;;;;;13.40;8.47;;;;;;;15.66;80.77;101561.13;5011847;28;20359;-71
2023/06/25 01:02:46;;;;;;;9.03;8.07;;;;;;;15.65;80.88;101559.59;5001631;28;20271;-71
2023/06/25 01:05:19;;;;;;;14.03;9.07;;;;;;;15.63;81.24;101562.56;5010311;28;20209;-71
2023/06/25 01:07:48;;;;;;;12.53;8.60;;;;;;;15.61;80.75;101564.03;4990925;28;20225;-71
2023/06/25 01:10:15;;;;;;;13.40;8.93;;;;;;;15.60;81.09;101565.13;4992531;28;20760;-71
2023/06/25 01:12:43;;;;;;;10.83;8.40;;;;;;;15.57;80.90;101563.91;4990636;28;20217;-72
2023/06/25 01:15:10;;;;;;;13.40;8.97;;;;;;;15.53;80.57;101563.03;4992230;28;20422;-71
2023/06/25 01:17:37;;;;;;;10.30;8.30;;;;;;;15.50;80.58;101557.59;4992175;28;20224;-72
2023/06/25 01:20:04;;;;;;;11.77;8.10;;;;;;;15.50;81.43;101565.59;5004918;28;20189;-72
2023/06/25 01:22:33;;;;;;;11.10;8.83;;;;;;;15.50;80.95;101568.25;4990418;28;20205;-71
2023/06/25 01:25:01;;;;;;;12.43;8.00;;;;;;;15.44;81.27;101565.06;4992225;28;20212;-71
2023/06/25 01:27:27;;;;;;;11.97;8.63;;;;;;;15.44;81.34;101561.59;4990325;28;20229;-71
2023/06/25 01:29:55;;;;;;;14.00;8.80;;;;;;;15.41;81.38;101568.38;4994885;28;20225;-72
2023/06/25 01:32:22;;;;;;;10.20;8.20;;;;;;;15.40;81.29;101563.38;4995896;28;20245;-71
2023/06/25 01:34:48;;;;;;;9.17;8.03;;;;;;;15.39;81.65;101564.50;4979218;28;20229;-72
2023/06/25 01:37:17;;;;;;;11.17;8.60;;;;;;;15.37;81.38;101561.41;4996721;28;20240;-71
2023/06/25 01:39:47;;;;;;;10.60;7.80;;;;;;;15.35;81.47;101552.94;5001715;28;20213;-71
2023/06/25 01:42:14;;;;;;;10.30;8.03;;;;;;;15.35;81.81;101552.94;4987709;28;20190;-71
2023/06/25 01:44:40;;;;;;;11.53;8.00;;;;;;;15.33;81.63;101557.84;5003260;28;20205;-71
2023/06/25 01:47:06;;;;;;;11.50;8.70;;;;;;;15.30;81.38;101547.81;4999352;28;20670;-71
2023/06/25 01:49:33;;;;;;;9.53;7.83;;;;;;;15.30;81.49;101561.13;5001230;28;20299;-72
2023/06/25 01:52:07;;;;;;;10.13;8.37;;;;;;;15.29;81.97;101547.06;5010706;28;20291;-72
2023/06/25 01:54:34;;;;;;;10.50;8.63;;;;;;;15.28;81.68;101539.41;4993768;28;20224;-72
2023/06/25 01:57:03;;;;;;;15.70;9.10;;;;;;;15.28;81.74;101544.72;4990969;28;20201;-71
2023/06/25 01:59:34;;;;;;;9.30;7.77;;;;;;;15.25;81.95;101542.72;4990215;28;20194;-71
2023/06/25 02:02:00;;;;;;;9.57;8.17;;;;;;;15.23;82.00;101543.06;5004658;28;20205;-72
2023/06/25 02:04:26;;;;;;;10.70;8.10;;;;;;;15.20;81.34;101532.28;4989354;28;20683;-71
2023/06/25 02:06:53;;;;;;;13.87;9.50;;;;;;;15.20;82.17;101542.94;5003741;28;20193;-71
2023/06/25 02:09:19;;;;;;;15.13;9.10;;;;;;;15.16;81.49;101534.09;4993213;28;20660;-71
2023/06/25 02:11:46;;;;;;;13.50;9.43;;;;;;;15.15;81.62;101535.19;4991417;28;20276;-71
2023/06/25 02:14:14;;;;;;;10.80;8.30;;;;;;;15.14;81.83;101533.63;4990883;28;20244;-72
2023/06/25 02:16:40;;;;;;;9.90;7.90;;;;;;;15.13;81.97;101529.44;4991045;28;20235;-72
2023/06/25 02:19:07;;;;;;;11.73;8.23;;;;;;;15.10;82.00;101530.88;4999870;28;20261;-72
2023/06/25 02:21:33;;;;;;;10.43;7.50;;;;;;;15.08;81.58;101527.78;4989925;28;20206;-72
2023/06/25 02:23:59;;;;;;;10.00;7.30;;;;;;;15.07;82.09;101525.44;5004934;28;20201;-71
2023/06/25 02:26:26;;;;;;;11.90;7.13;;;;;;;15.04;81.83;101524.22;4999352;28;20260;-72
2023/06/25 02:28:52;;;;;;;8.40;6.77;;;;;;;15.02;81.83;101521.13;5005830;28;20651;-72
2023/06/25 02:31:20;;;;;;;9.20;7.67;;;;;;;15.01;82.03;101513.47;4991477;28;20209;-72
2023/06/25 02:33:46;;;;;;;9.03;7.03;;;;;;;14.99;81.91;101523.66;5006434;28;20583;-72
2023/06/25 02:36:13;;;;;;;10.37;7.30;;;;;;;14.98;82.11;101517.56;4995920;28;20201;-71
2023/06/25 02:38:39;;;;;;;10.03;7.13;;;;;;;14.97;82.26;101512.56;5004281;28;20224;-71
2023/06/25 02:41:05;;;;;;;8.33;6.90;;;;;;;14.96;82.66;101521.66;4995847;28;20212;-71
2023/06/25 02:43:32;;;;;;;8.50;7.03;;;;;;;14.93;82.15;101511.69;4999841;28;20225;-71
2023/06/25 02:45:59;;;;;;;9.87;7.03;;;;;;;14.92;82.61;101504.81;5009004;28;20204;-71
2023/06/25 02:48:27;;;;;;;8.80;6.77;;;;;;;14.88;82.16;101504.69;5002319;28;20612;-71
2023/06/25 02:50:53;;;;;;;9.27;7.27;;;;;;;14.87;82.57;101505.03;5006032;28;20232;-72
2023/06/25 02:53:19;;;;;;;7.87;7.07;;;;;;;14.86;82.31;101506.13;5000752;28;20213;-71
2023/06/25 02:55:46;;;;;;;8.83;7.30;;;;;;;14.89;82.67;101497.47;4989119;28;20221;-72
2023/06/25 02:58:12;;;;;;;9.30;7.97;;;;;;;14.88;82.58;101502.03;5008773;28;20224;-71
2023/06/25 03:00:39;;;;;;;10.40;7.63;;;;;;;14.88;82.85;101495.94;5008622;28;20283;-72
2023/06/25 03:03:06;;;;;;;10.57;8.20;;;;;;;14.88;82.79;101506.56;4989140;28;20474;-72
2023/06/25 03:05:34;;;;;;;13.30;8.73;;;;;;;14.89;83.19;101498.28;4985789;28;20213;-71
2023/06/25 03:08:01;;;;;;;9.33;7.77;;;;;;;14.89;82.61;101494.81;5000722;28;20604;-72
2023/06/25 03:10:29;;;;;;;9.40;7.53;;;;;;;14.88;82.85;101499.38;5000171;28;20227;-71
2023/06/25 03:12:57;;;;;;;9.80;8.23;;;;;;;14.88;82.64;101495.94;4996320;28;20211;-71
2023/06/25 03:15:24;;;;;;;10.10;7.27;;;;;;;14.87;82.29;101495.19;5004833;28;20196;-71
2023/06/25 03:17:51;;;;;;;9.73;7.60;;;;;;;14.87;82.61;101497.06;5001145;28;20244;-71
2023/06/25 03:20:18;;;;;;;15.97;8.60;;;;;;;14.86;82.56;101495.50;4993832;28;20637;-71
2023/06/25 03:22:46;;;;;;;12.90;8.33;;;;;;;14.87;82.18;101486.41;4999858;28;20292;-71
2023/06/25 03:25:13;;;;;;;9.50;7.77;;;;;;;14.88;82.76;101495.94;5007041;28;20197;-71
2023/06/25 03:27:43;;;;;;;10.33;7.77;;;;;;;14.91;82.99;101489.97;5001274;28;20221;-71
2023/06/25 03:30:10;;;;;;;10.73;8.03;;;;;;;14.91;82.74;101485.41;5000642;28;20193;-71
2023/06/25 03:32:36;;;;;;;13.37;7.97;;;;;;;14.94;83.12;101490.06;4993882;28;20668;-72
2023/06/25 03:35:04;;;;;;;11.13;9.07;;;;;;;14.95;82.68;101498.84;5012101;28;20246;-71
2023/06/25 03:37:32;;;;;;;11.47;7.60;;;;;;;14.97;82.76;101504.59;5004202;28;20221;-72
2023/06/25 03:40:00;;;;;;;11.47;8.30;;;;;;;15.01;83.01;101500.16;5005878;28;20196;-71
2023/06/25 03:42:26;;;;;;;10.77;8.43;;;;;;;15.07;83.33;101504.16;4998434;28;20225;-71
2023/06/25 03:44:55;;;;;;;13.73;9.33;;;;;;;15.11;83.19;101502.38;5002169;28;20237;-72
2023/06/25 03:47:25;;;;;;;12.33;9.00;;;;;;;15.17;83.06;101506.38;4994270;28;20229;-72
2023/06/25 03:49:52;;;;;;;12.10;10.07;;;;;;;15.23;82.64;101507.69;4995571;28;20204;-71
2023/06/25 03:52:20;;;;;;;12.17;8.30;;;;;;;15.29;82.44;101504.47;5008512;28;20205;-71
2023/06/25 03:54:46;;;;;;;12.77;9.43;;;;;;;15.32;82.56;101506.47;4991965;28;20228;-72
2023/06/25 03:57:14;;;;;;;10.30;9.07;;;;;;;15.39;82.60;101501.41;4991919;28;20644;-72
2023/06/25 03:59:40;;;;;;;13.27;9.20;;;;;;;15.47;82.48;101497.06;5002803;28;20217;-72
2023/06/25 04:02:08;;;;;;;11.43;9.40;;;;;;;15.54;82.72;101489.28;5007613;28;20197;-72
2023/06/25 04:04:34;;;;;;;15.60;9.83;;;;;;;15.63;82.75;101495.25;5009119;28;20204;-72
2023/06/25 04:07:01;;;;;;;12.03;9.43;;;;;;;15.69;82.51;101494.66;5008408;28;20311;-72
2023/06/25 04:09:27;;;;;;;12.70;10.07;;;;;;;15.77;82.38;101498.31;4999327;28;20589;-71
2023/06/25 04:11:54;;;;;;;14.53;8.80;;;;;;;15.84;82.47;101498.53;5009340;28;20285;-72
2023/06/25 04:14:22;;;;;;;12.57;9.20;;;;;;;15.92;82.56;101503.72;5005559;28;20473;-71
2023/06/25 04:16:48;;;;;;;12.73;9.50;;;;;;;15.98;82.19;101497.03;4992030;28;20214;-71
2023/06/25 04:19:15;;;;;;;12.83;9.87;;;;;;;16.06;81.64;101492.66;4995545;28;20216;-72
2023/06/25 04:21:41;;;;;;;11.53;8.63;;;;;;;16.11;81.56;101490.53;4991309;28;20290;-72
2023/06/25 04:24:08;;;;;;;11.73;9.40;;;;;;;16.19;81.39;101489.59;4991352;28;20207;-72
2023/06/25 04:26:34;;;;;;;14.93;8.70;;;;;;;16.26;81.30;101486.34;4998116;28;20201;-72
2023/06/25 04:29:03;;;;;;;13.63;9.23;;;;;;;16.32;80.97;101491.09;4986662;28;20514;-72
2023/06/25 04:31:31;;;;;;;11.10;8.73;;;;;;;16.41;81.27;101493.63;4995231;28;20209;-72
2023/06/25 04:33:58;;;;;;;10.80;9.20;;;;;;;16.48;81.60;101491.16;4990980;28;20244;-72
2023/06/25 04:36:25;;;;;;;12.93;9.23;;;;;;;16.56;81.70;101498.22;4998343;28;20608;-71
2023/06/25 04:38:56;;;;;;;18.53;9.67;;;;;;;16.62;81.30;101492.25;4996124;28;20227;-71
2023/06/25 04:41:27;;;;;;;13.30;9.87;;;;;;;16.70;80.87;101493.22;4990846;28;20718;-72
2023/06/25 04:43:54;;;;;;;11.37;8.33;;;;;;;16.74;80.39;101494.88;4998513;28;20277;-72
2023/06/25 04:46:20;;;;;;;20.37;8.60;;;;;;;16.80;80.48;101482.81;5010375;28;20239;-72
2023/06/25 04:48:48;;;;;;;12.17;9.17;;;;;;;16.87;80.40;101488.31;4995543;28;20221;-71
2023/06/25 04:51:14;;;;;;;10.73;8.87;;;;;;;16.93;80.25;101488.84;5009887;28;20208;-72
2023/06/25 04:53:41;;;;;;;11.60;9.63;;;;;;;16.96;79.89;101488.91;4995205;28;20225;-71
2023/06/25 04:56:07;;;;;;;25.00;10.00;;;;;;;17.03;79.79;101491.75;4995311;28;20499;-71
2023/06/25 04:58:35;;;;;;;12.37;8.77;;;;;;;17.10;79.88;101491.13;5000192;28;20224;-72
2023/06/25 05:01:02;;;;;;;12.03;9.07;;;;;;;17.15;79.47;101502.34;5003596;28;20207;-72
2023/06/25 05:03:28;;;;;;;21.03;8.90;;;;;;;17.23;79.62;101495.25;4989489;28;20197;-72
2023/06/25 05:05:56;;;;;;;14.73;9.40;;;;;;;17.29;79.81;101491.19;4992064;28;20204;-71
2023/06/25 05:08:22;;;;;;;13.83;9.23;;;;;;;17.36;79.85;101502.03;4991707;28;20222;-72
2023/06/25 05:10:49;;;;;;;12.57;9.23;;;;;;;17.43;79.43;101491.56;4991386;28;20285;-72
2023/06/25 05:13:15;;;;;;;12.27;8.93;;;;;;;17.48;79.07;101500.03;4997634;28;20217;-72
2023/06/25 05:15:41;;;;;;;17.30;9.00;;;;;;;17.55;78.92;101491.41;5006603;28;20201;-71
2023/06/25 05:18:08;;;;;;;10.03;8.63;;;;;;;17.61;79.17;101490.81;4997758;28;20214;-72
2023/06/25 05:20:36;;;;;;;11.40;9.03;;;;;;;17.67;79.04;101501.97;4998794;28;20204;-71
2023/06/25 05:23:04;;;;;;;10.23;8.60;;;;;;;17.72;78.79;101497.13;4993642;28;20201;-72
2023/06/25 05:25:31;;;;;;;19.47;9.43;;;;;;;17.80;78.58;101496.13;4984016;28;20204;-72
2023/06/25 05:27:58;;;;;;;21.97;10.23;;;;;;;17.84;78.23;101490.84;4983091;28;20317;-72
2023/06/25 05:30:24;;;;;;;13.03;9.10;;;;;;;17.91;78.21;101493.69;4994010;28;20205;-72
2023/06/25 05:32:51;;;;;;;10.77;9.00;;;;;;;17.96;78.04;101504.84;4999507;28;20209;-71
2023/06/25 05:35:17;;;;;;;10.93;8.57;;;;;;;18.03;78.00;101504.22;5009696;28;20216;-72
2023/06/25 05:37:44;;;;;;;12.27;9.03;;;;;;;18.08;77.74;101493.25;4993389;28;20473;-72
2023/06/25 05:40:13;;;;;;;10.80;8.60;;;;;;;18.14;77.79;101494.50;5008984;28;20312;-72
2023/06/25 05:42:39;;;;;;;18.37;9.43;;;;;;;18.20;77.70;101493.09;4999893;28;20212;-72
2023/06/25 05:45:07;;;;;;;13.50;8.87;;;;;;;18.25;77.62;101490.91;4998098;28;20441;-71
2023/06/25 05:47:34;;;;;;;17.20;8.60;;;;;;;18.32;77.76;101498.31;4998402;28;20224;-72
2023/06/25 05:50:00;;;;;;;14.17;9.40;;;;;;;18.35;77.07;101503.72;4997026;28;20208;-71
2023/06/25 05:52:26;;;;;;;10.40;8.83;;;;;;;18.41;77.36;101502.31;4990169;28;20212;-72
2023/06/25 05:54:53;;;;;;;14.20;9.20;;;;;;;18.48;77.06;101507.78;4990753;28;20236;-72
2023/06/25 05:57:20;;;;;;;13.70;9.33;;;;;;;18.52;77.12;101507.84;4998983;28;20217;-72
2023/06/25 05:59:47;;;;;;;17.60;9.23;;;;;;;18.56;76.52;101496.06;4992813;28;20213;-72
2023/06/25 06:02:14;;;;;;;13.33;9.10;;;;;;;18.59;75.95;101498.06;4990452;28;20621;-72
2023/06/25 06:04:41;;;;;;;21.00;9.43;;;;;;;18.63;75.41;101504.22;4990531;28;20248;-72
2023/06/25 06:07:07;;;;;;;17.40;9.93;;;;;;;18.65;75.22;101512.66;4995723;28;20207;-72
2023/06/25 06:09:33;;;;;;;12.70;9.03;;;;;;;18.70;75.14;101509.69;4995789;28;20670;-72
2023/06/25 06:12:00;;;;;;;10.90;8.37;;;;;;;18.74;74.49;101507.09;4990938;28;20198;-72
2023/06/25 06:14:28;;;;;;;17.40;8.87;;;;;;;18.76;74.69;101508.28;4993531;28;20209;-72
2023/06/25 06:16:54;;;;;;;7.93;6.93;;;;;;;18.80;74.35;101506.44;4989752;28;20197;-72
2023/06/25 06:19:20;;;;;;;9.17;7.43;;;;;;;18.84;74.53;101507.25;4990987;28;20212;-72
2023/06/25 06:21:47;;;;;;;12.77;9.20;;;;;;;18.87;75.12;101509.22;4995618;28;20205;-72
2023/06/25 06:24:13;;;;;;;16.63;9.30;;;;;;;18.91;74.73;101507.38;4993400;28;20207;-72
2023/06/25 06:26:39;;;;;;;11.47;8.07;;;;;;;18.95;74.81;101510.88;4998509;28;20578;-72
2023/06/25 06:29:06;;;;;;;10.43;8.33;;;;;;;18.98;74.73;101506.69;4990692;28;20239;-72
2023/06/25 06:31:33;;;;;;;11.00;9.23;;;;;;;19.00;73.91;101515.91;4993264;28;20228;-72
2023/06/25 06:34:00;;;;;;;11.17;8.57;;;;;;;19.04;74.64;101516.75;4990196;28;20280;-72
2023/06/25 06:36:26;;;;;;;10.20;7.70;;;;;;;19.09;74.34;101518.34;4988438;28;20201;-72
2023/06/25 06:38:53;;;;;;;11.23;7.83;;;;;;;19.13;74.21;101513.81;4992366;28;20293;-72
2023/06/25 06:41:19;;;;;;;12.33;8.47;;;;;;;19.18;74.50;101521.53;4991213;28;20198;-72
2023/06/25 06:43:45;;;;;;;16.93;11.10;;;;;;;19.20;74.69;101509.31;5002667;28;20705;-72
2023/06/25 06:46:12;;;;;;;26.53;12.93;;;;;;;19.23;73.62;101511.31;4991286;28;20335;-71
2023/06/25 06:48:39;;;;;;;16.77;10.27;;;;;;;19.27;73.55;101514.84;4991057;28;20268;-71
2023/06/25 06:51:06;;;;;;;12.63;10.13;;;;;;;19.30;73.70;101511.41;4996358;28;20215;-72
2023/06/25 06:53:32;;;;;;;11.40;8.97;;;;;;;19.33;73.65;101513.38;4996338;28;20200;-71
2023/06/25 06:55:58;;;;;;;11.60;7.83;;;;;;;19.36;73.38;101507.28;4993062;28;20224;-71
2023/06/25 06:58:25;;;;;;;13.83;9.23;;;;;;;19.41;73.76;101506.22;5002766;28;20224;-72
2023/06/25 07:00:51;;;;;;;12.00;8.33;;;;;;;19.44;73.53;101508.16;4985202;28;20293;-72
2023/06/25 07:03:18;;;;;;;14.17;8.43;;;;;;;19.47;72.83;101502.09;4990726;28;20228;-72
2023/06/25 07:05:45;;;;;;;11.63;8.20;;;;;;;19.52;72.96;101501.78;4995756;28;20560;-71
2023/06/25 07:08:12;;;;;;;10.23;7.17;;;;;;;19.57;73.08;101502.25;4979254;28;20221;-71
2023/06/25 07:10:39;;;;;;;9.10;7.13;;;;;;;19.61;72.50;101503.03;4984174;28;20252;-72
2023/06/25 07:13:05;;;;;;;8.63;7.40;;;;;;;19.65;72.02;101509.22;4996916;28;20224;-72
2023/06/25 07:15:31;;;;;;;9.53;7.33;;;;;;;19.69;71.87;101510.06;4993178;28;20213;-72
2023/06/25 07:17:58;;;;;;;10.00;7.23;;;;;;;19.76;71.31;101504.00;4994030;28;20248;-71
2023/06/25 07:20:24;;;;;;;10.10;7.13;;;;;;;19.82;71.80;101503.31;4988972;28;20213;-72
2023/06/25 07:22:52;;;;;;;8.30;6.93;;;;;;;19.89;71.61;101505.31;4994487;28;20213;-72
2023/06/25 07:25:18;;;;;;;9.50;7.00;;;;;;;19.96;72.38;101510.75;4989412;28;20197;-72
2023/06/25 07:27:44;;;;;;;9.33;7.43;;;;;;;20.01;72.49;101510.41;4993486;28;20243;-71
2023/06/25 07:30:12;;;;;;;9.67;7.33;;;;;;;20.07;71.82;101515.13;4996387;28;20691;-72
2023/06/25 07:32:38;;;;;;;8.50;7.07;;;;;;;20.14;72.17;101507.19;4991108;28;20574;-72
2023/06/25 07:35:05;;;;;;;8.97;7.80;;;;;;;20.20;71.72;101511.06;4989983;28;20213;-71
2023/06/25 07:37:32;;;;;;;10.10;8.13;;;;;;;20.25;71.70;101513.41;4987140;28;20300;-72
2023/06/25 07:39:59;;;;;;;8.47;7.37;;;;;;;20.31;71.04;101521.88;4991811;28;20225;-72
2023/06/25 07:42:26;;;;;;;9.53;7.10;;;;;;;20.36;69.79;101521.56;4989836;28;20203;-72
2023/06/25 07:44:52;;;;;;;8.83;7.60;;;;;;;20.37;69.38;101523.09;4997399;28;20202;-72
2023/06/25 07:47:18;;;;;;;8.37;7.33;;;;;;;20.42;69.88;101522.75;4994401;28;20512;-72
2023/06/25 07:49:45;;;;;;;8.40;7.40;;;;;;;20.46;69.54;101518.22;4991266;28;20220;-72
2023/06/25 07:52:11;;;;;;;8.70;7.20;;;;;;;20.51;69.70;101518.66;4990869;28;20265;-72
2023/06/25 07:54:37;;;;;;;8.20;7.13;;;;;;;20.55;70.33;101516.00;4997326;28;20451;-72
2023/06/25 07:57:06;;;;;;;9.10;7.70;;;;;;;20.59;70.04;101516.81;4990156;28;20201;-71
2023/06/25 07:59:32;;;;;;;9.13;7.03;;;;;;;20.63;69.48;101514.91;4994821;28;20702;-72
2023/06/25 08:01:59;;;;;;;8.93;7.53;;;;;;;20.70;69.96;101515.00;4992073;28;20291;-72
2023/06/25 08:04:25;;;;;;;7.80;6.53;;;;;;;20.75;70.06;101517.34;5004908;28;20201;-71
2023/06/25 08:06:51;;;;;;;8.63;6.90;;;;;;;20.81;69.64;101529.28;4992016;28;20228;-72
2023/06/25 08:09:18;;;;;;;8.80;7.50;;;;;;;20.85;69.04;101524.72;4992225;28;20231;-72
2023/06/25 08:11:44;;;;;;;9.47;6.70;;;;;;;20.90;68.48;101527.84;5000850;28;20204;-72
2023/06/25 08:14:12;;;;;;;9.43;7.50;;;;;;;20.94;69.14;101519.81;5005162;28;20221;-72
2023/06/25 08:16:38;;;;;;;9.27;7.20;;;;;;;21.00;68.66;101519.09;4996945;28;20215;-72
2023/06/25 08:19:04;;;;;;;9.33;7.30;;;;;;;21.06;68.30;101525.66;5000054;28;20304;-72
2023/06/25 08:21:31;;;;;;;10.00;6.77;;;;;;;21.15;69.23;101528.00;4983685;28;20693;-72
2023/06/25 08:23:57;;;;;;;8.43;7.50;;;;;;;21.21;69.00;101529.97;4998212;28;20292;-72
2023/06/25 08:26:23;;;;;;;9.07;7.17;;;;;;;21.29;68.83;101538.88;4998861;28;20224;-72
2023/06/25 08:28:50;;;;;;;9.13;7.13;;;;;;;21.39;68.77;101535.47;4990461;28;20248;-72
2023/06/25 08:31:18;;;;;;;7.67;6.87;;;;;;;21.50;68.78;101523.66;4995246;28;20275;-72
2023/06/25 08:33:45;;;;;;;9.00;6.67;;;;;;;21.61;67.97;101526.38;4994183;28;20197;-72
2023/06/25 08:36:12;;;;;;;8.13;7.27;;;;;;;21.72;68.74;101516.47;4991822;28;20222;-72
2023/06/25 08:38:38;;;;;;;8.43;7.07;;;;;;;21.82;67.11;101516.53;5001469;28;20323;-72
2023/06/25 08:41:04;;;;;;;10.05;6.30;;;;;;;21.92;67.31;101515.81;4997548;28;20202;-72
2023/06/25 08:43:31;;;;;;;8.40;6.50;;;;;;;22.01;66.37;101516.22;4993380;28;20197;-72
2023/06/25 08:45:58;;;;;;;7.53;6.35;;;;;;;22.11;66.73;101526.25;4994697;28;20201;-73
2023/06/25 08:48:28;;;;;;;7.00;6.18;;;;;;;22.23;65.77;101519.72;4994098;28;20217;-72
2023/06/25 08:50:56;;;;;;;8.38;5.97;;;;;;;22.34;64.43;101525.91;4993079;28;20209;-71
2023/06/25 08:53:26;;;;;;;7.20;6.05;;;;;;;22.41;64.09;101521.28;4993264;28;20225;-72
2023/06/25 08:55:55;;;;;;;7.15;5.35;;;;;;;22.50;63.96;101518.28;4991139;28;20213;-71
2023/06/25 08:58:22;;;;;;;9.23;6.53;;;;;;;22.55;62.71;101520.59;4996711;28;20228;-72
2023/06/25 09:00:48;;;;;;;9.02;6.28;;;;;;;22.62;62.19;101523.28;5000200;28;20668;-72
2023/06/25 09:03:15;;;;;;;8.75;5.90;;;;;;;22.68;62.82;101522.53;4990330;28;20201;-72
2023/06/25 09:05:51;;;;;;;6.43;5.72;;;;;;;22.77;61.93;101514.81;4995773;28;20204;-72
2023/06/25 09:08:18;;;;;;;6.10;5.40;;;;;;;22.84;60.26;101505.97;5000742;28;20711;-72
2023/06/25 09:10:50;;;;;;;6.03;5.03;;;;;;;22.94;61.41;101508.69;4996888;28;20205;-72
2023/06/25 09:13:21;;;;;;;5.85;4.88;;;;;;;23.05;60.21;101512.13;4989567;28;20479;-72
2023/06/25 09:15:47;;;;;;;5.95;4.90;;;;;;;23.15;60.59;101505.94;4993325;28;20554;-72
2023/06/25 09:18:13;;;;;;;7.35;5.03;;;;;;;23.27;58.65;101504.78;4993320;28;20221;-72
2023/06/25 09:20:45;;;;;;;5.90;5.03;;;;;;;23.41;61.03;101510.16;4998004;28;20205;-72
2023/06/25 09:23:19;;;;;;;5.93;4.90;;;;;;;23.52;57.36;101505.50;4991647;28;20288;-72
2023/06/25 09:25:45;;;;;;;4.88;4.03;;;;;;;23.64;57.54;101505.84;4995375;28;20664;-72
2023/06/25 09:28:12;;;;;;;4.22;3.28;;;;;;;23.73;52.76;101500.78;4991958;28;20300;-72
2023/06/25 09:30:39;;;;;;;4.10;3.42;;;;;;;23.88;54.00;101489.94;4989913;28;20201;-72
2023/06/25 09:33:06;;;;;;;4.60;3.85;;;;;;;23.99;53.68;101499.53;4991323;28;20209;-72
2023/06/25 09:35:33;;;;;;;7.05;3.88;;;;;;;24.12;55.31;101497.16;4987200;28;20213;-72
2023/06/25 09:38:01;;;;;;;4.70;3.60;;;;;;;24.22;53.74;101491.72;4992885;28;20221;-72
2023/06/25 09:40:29;;;;;;;4.88;3.92;;;;;;;24.27;51.65;101485.88;4997750;28;20200;-72
2023/06/25 09:42:57;;;;;;;6.30;3.78;;;;;;;24.37;53.71;101486.97;4996575;28;20198;-72
2023/06/25 09:45:24;;;;;;;5.25;3.88;;;;;;;24.42;54.81;101488.09;4989515;28;20204;-72
2023/06/25 09:47:52;;;;;;;7.22;3.50;;;;;;;24.48;53.81;101488.44;4993421;28;20229;-72
2023/06/25 09:50:20;;;;;;;4.20;3.60;;;;;;;24.57;55.27;101485.28;4989273;28;20197;-72
2023/06/25 09:52:54;;;;;;;4.70;3.83;;;;;;;24.62;53.26;101484.88;4990046;28;20216;-72
2023/06/25 09:55:21;;;;;;;5.90;4.40;;;;;;;24.71;56.56;101479.81;4999465;28;20221;-72
2023/06/25 09:57:50;;;;;;;5.38;4.05;;;;;;;24.80;54.29;101480.09;4996405;28;20590;-72
2023/06/25 10:00:17;;;;;;;4.82;3.88;;;;;;;24.94;59.26;101480.75;4997874;28;20295;-72
2023/06/25 10:02:44;;;;;;;4.32;3.70;;;;;;;25.05;60.65;101483.31;4991420;28;20206;-71
2023/06/25 10:05:11;;;;;;;4.95;3.70;;;;;;;25.11;53.43;101479.78;4994101;28;20660;-72
2023/06/25 10:07:37;;;;;;;4.47;3.45;;;;;;;25.21;48.76;101470.81;4990835;28;20227;-72
2023/06/25 10:10:04;;;;;;;5.07;3.55;;;;;;;25.32;48.58;101470.69;5002129;28;20204;-72
2023/06/25 10:12:33;;;;;;;5.35;3.97;;;;;;;25.43;52.12;101469.41;5000969;28;20213;-72
2023/06/25 10:15:03;;;;;;;5.28;3.90;;;;;;;25.57;48.21;101457.66;4995109;28;20263;-72
2023/06/25 10:17:30;;;;;;;5.38;4.13;;;;;;;25.69;55.37;101457.13;4992150;28;20225;-71
2023/06/25 10:19:58;;;;;;;5.88;4.32;;;;;;;25.77;50.94;101453.16;4990392;28;20223;-72
2023/06/25 10:22:26;;;;;;;4.60;3.67;;;;;;;25.90;49.51;101451.44;4994284;28;20189;-72
2023/06/25 10:24:54;;;;;;;4.75;4.32;;;;;;;26.01;50.30;101458.25;4996006;28;20223;-72
2023/06/25 10:27:30;;;;;;;4.20;3.80;;;;;;;26.10;46.68;101446.94;4993178;28;20221;-72
2023/06/25 10:29:58;;;;;;;6.68;4.00;;;;;;;26.15;48.95;101452.63;4991479;28;20564;-72
2023/06/25 10:32:27;;;;;;;5.20;3.72;;;;;;;26.18;45.42;101445.63;4988350;28;20228;-72
2023/06/25 10:34:55;;;;;;;4.70;3.55;;;;;;;26.26;46.21;101455.19;4990582;28;20275;-72
2023/06/25 10:37:23;;;;;;;4.45;3.80;;;;;;;26.29;45.51;101447.00;4988445;28;20217;-72
2023/06/25 10:39:49;;;;;;;4.18;3.60;;;;;;;26.32;47.08;101448.88;4989879;28;20216;-72
2023/06/25 10:42:16;;;;;;;4.47;4.05;;;;;;;26.38;48.92;101452.66;4993971;28;20204;-72
2023/06/25 10:44:42;;;;;;;5.80;4.05;;;;;;;26.43;44.93;101441.38;4991866;28;20205;-72
2023/06/25 10:47:10;;;;;;;5.43;3.50;;;;;;;26.51;46.00;101434.63;5000235;28;20213;-72
2023/06/25 10:49:38;;;;;;;5.57;4.05;;;;;;;26.58;44.20;101433.78;4990170;28;20197;-72
2023/06/25 10:52:06;;;;;;;5.93;4.00;;;;;;;26.66;47.09;101427.84;4988598;28;20216;-72
2023/06/25 10:54:33;;;;;;;4.80;3.97;;;;;;;26.74;45.18;101431.97;4984792;28;20204;-72
2023/06/25 10:57:07;;;;;;;4.90;3.85;;;;;;;26.80;43.71;101421.38;4994831;28;20692;-72
2023/06/25 10:59:33;;;;;;;7.22;3.92;;;;;;;26.87;44.35;101419.31;4984414;28;20201;-72
2023/06/25 11:02:10;;;;;;;4.25;3.85;;;;;;;26.91;43.61;101420.03;4995440;28;20200;-73
2023/06/25 11:04:37;;;;;;;4.72;3.95;;;;;;;26.95;45.99;101414.53;4987150;28;20508;-72
2023/06/25 11:07:04;;;;;;;4.10;3.70;;;;;;;27.00;45.42;101409.41;4988220;28;20194;-72
2023/06/25 11:09:30;;;;;;;6.15;4.03;;;;;;;27.00;45.55;101408.63;4990860;28;20202;-72
2023/06/25 11:11:56;;;;;;;6.55;4.05;;;;;;;27.00;43.11;101403.97;4987164;28;20232;-72
2023/06/25 11:14:24;;;;;;;6.90;3.95;;;;;;;27.05;42.16;101408.13;4988790;28;20189;-72
2023/06/25 11:16:50;;;;;;;4.40;4.00;;;;;;;27.14;49.06;101402.94;4989985;28;20255;-72
2023/06/25 11:19:17;;;;;;;5.20;3.67;;;;;;;27.20;53.25;101404.00;4993811;28;20216;-72